Список аэропортов
Фактическая погода:

24 октября, 12:00
Температура: +21°C (+21.0*)
Ветер: 0
Давление: *769 мм
Без существ. явл.
Время (МСК)Темп. СВетерВлажностьДавлениеОблачностьОсадки
09:00+15СЗ, 3 м/с70%1025 гПас прояснениями
10:00+16СЗ, 3 м/с66%1025 гПамалооблачно
11:00+18С, 2 м/с58%1026 гПас прояснениями
12:00+20СВ, 2 м/с59%1026 гПамалооблачно
13:00+21В, 2 м/с65%1026 гПамалооблачно
14:00+22ЮВ, 3 м/с64%1026 гПаясно
15:00+22ЮВ, 3 м/с60%1025 гПаясно
16:00+23ЮВ, 3 м/с56%1025 гПаясно
17:00+23ЮВ, 3 м/с54%1024 гПаясно
18:00+22ЮВ, 3 м/с55%1024 гПаясно
19:00+22ЮВ, 3 м/с58%1024 гПаясно
20:00+21ЮВ, 3 м/с66%1024 гПаясно
21:00+20Ю, 2 м/с73%1025 гПаясно
22:00+20Ю, 1 м/с77%1025 гПаясно
23:00+19ЮЗ, 1 м/с82%1026 гПамалооблачно
25 октября
00:00+18З, 1 м/с84%1026 гПамалооблачно
01:00+18СЗ, 2 м/с86%1026 гПас прояснениями
02:00+17СЗ, 2 м/с84%1026 гПамалооблачно
03:00+17СЗ, 2 м/с80%1026 гПаясно
04:00+16СЗ, 2 м/с76%1025 гПамалооблачно
05:00+16СЗ, 3 м/с72%1025 гПаоблачно
06:00+16СЗ, 3 м/с68%1025 гПас прояснениями
07:00+16СЗ, 3 м/с66%1025 гПас прояснениями
08:00+15СЗ, 3 м/с64%1025 гПамалооблачно
09:00+15СЗ, 3 м/с63%1025 гПамалооблачно
10:00+15СЗ, 2 м/с63%1026 гПамалооблачно
11:00+17СЗ, 2 м/с54%1026 гПамалооблачно
12:00+20З, 2 м/с47%1026 гПамалооблачно
13:00+22ЮЗ, 3 м/с49%1026 гПамалооблачно
14:00+23ЮЗ, 3 м/с52%1026 гПамалооблачно
15:00+23Ю, 3 м/с54%1026 гПамалооблачно
16:00+24Ю, 3 м/с56%1025 гПаясно
17:00+24Ю, 4 м/с59%1025 гПаясно
18:00+23Ю, 4 м/с64%1025 гПаясно
19:00+22Ю, 4 м/с68%1025 гПаясно
20:00+21Ю, 3 м/с72%1025 гПаясно
21:00+21Ю, 2 м/с75%1026 гПаясно
22:00+20Ю, 1 м/с79%1026 гПаясно
23:00+19Штиль 82%1027 гПаясно
26 октября
00:00+19Штиль 86%1027 гПаясно
01:00+18СЗ, 1 м/с88%1027 гПаясно
02:00+18СЗ, 2 м/с89%1027 гПаясно
03:00+18С, 2 м/с90%1027 гПаясно
04:00+17С, 3 м/с89%1027 гПаясно
05:00+17С, 3 м/с88%1027 гПаясно
06:00+16СЗ, 3 м/с87%1027 гПаясно
07:00+16СЗ, 3 м/с86%1027 гПаясно
08:00+16СЗ, 3 м/с86%1027 гПаясно
09:00+16СЗ, 3 м/с86%1028 гПаясно